Time;durP1;ratioP1;P1;durP2;ratioP2;P2;SDS_P1;SDS_P2;PMS_P1;PMS_P2;Temp;Humidity;BMP_temperature;BMP_pressure;BME280_temperature;BME280_humidity;BME280_pressure;Samples;Min_cycle;Max_cycle;Signal;HPM_P1;HPM_P2
2021/07/09 00:01:28;;;;;;;2.35;1.30;;;20.50;88.70;;;;;;5071700;28;20035;-72
2021/07/09 00:03:55;;;;;;;2.20;0.90;;;20.40;88.70;;;;;;5059567;28;20391;-71
2021/07/09 00:06:22;;;;;;;2.28;1.08;;;20.40;88.30;;;;;;5068652;28;20039;-71
2021/07/09 00:08:48;;;;;;;4.60;1.10;;;20.30;88.50;;;;;;5063214;28;20025;-71
2021/07/09 00:11:16;;;;;;;0.63;0.63;;;20.30;88.10;;;;;;5051713;28;20025;-71
2021/07/09 00:13:42;;;;;;;2.20;0.98;;;20.20;88.80;;;;;;5051697;28;20021;-72
2021/07/09 00:16:10;;;;;;;0.80;0.75;;;20.20;89.10;;;;;;5054579;28;20025;-72
2021/07/09 00:18:36;;;;;;;1.65;0.73;;;20.20;89.50;;;;;;5059967;28;20024;-72
2021/07/09 00:21:02;;;;;;;14.18;1.35;;;20.20;89.60;;;;;;5057841;28;20031;-71
2021/07/09 00:23:28;;;;;;;0.60;0.60;;;20.20;89.90;;;;;;5059830;28;20033;-71
2021/07/09 00:25:54;;;;;;;0.82;0.57;;;20.20;90.00;;;;;;5058891;28;20025;-74
2021/07/09 00:28:20;;;;;;;4.05;0.95;;;20.20;90.00;;;;;;5070961;28;20025;-71
2021/07/09 00:30:46;;;;;;;1.25;0.90;;;20.30;90.10;;;;;;5059069;28;20033;-72
2021/07/09 00:33:12;;;;;;;6.20;0.90;;;20.30;90.00;;;;;;5058975;28;20025;-72
2021/07/09 00:35:37;;;;;;;0.95;0.75;;;20.30;90.00;;;;;;5060643;28;20082;-71
2021/07/09 00:38:03;;;;;;;1.48;0.70;;;20.20;89.80;;;;;;5053734;28;20432;-72
2021/07/09 00:40:29;;;;;;;0.70;0.70;;;20.20;89.80;;;;;;5060121;28;20761;-71
2021/07/09 00:42:54;;;;;;;0.60;0.60;;;20.20;89.80;;;;;;5067992;28;20029;-72
2021/07/09 00:45:20;;;;;;;2.55;0.80;;;20.20;90.00;;;;;;5069365;28;20543;-72
2021/07/09 00:47:50;;;;;;;1.48;0.90;;;20.20;90.00;;;;;;5064894;28;20051;-72
2021/07/09 00:50:17;;;;;;;1.65;0.90;;;20.20;90.10;;;;;;5069065;28;20068;-71
2021/07/09 00:52:44;;;;;;;2.33;0.90;;;20.20;90.00;;;;;;5055377;28;20074;-71
2021/07/09 00:55:11;;;;;;;2.45;0.80;;;20.20;90.00;;;;;;5051430;28;20490;-72
2021/07/09 00:57:40;;;;;;;3.85;1.50;;;20.20;90.00;;;;;;5049987;28;20681;-72
2021/07/09 01:00:09;;;;;;;4.75;1.98;;;20.10;89.40;;;;;;5051053;28;20032;-71
2021/07/09 01:02:35;;;;;;;1.50;1.23;;;20.10;89.50;;;;;;5051687;28;21212;-72
2021/07/09 01:05:03;;;;;;;2.30;1.30;;;20.00;88.90;;;;;;5070857;28;20025;-71
2021/07/09 01:07:29;;;;;;;3.20;1.20;;;20.00;89.10;;;;;;5062729;28;20029;-72
2021/07/09 01:09:55;;;;;;;1.33;1.00;;;20.00;89.10;;;;;;5051129;28;20023;-71
2021/07/09 01:12:21;;;;;;;1.27;0.93;;;20.00;89.30;;;;;;5050183;28;20037;-72
2021/07/09 01:14:47;;;;;;;1.63;1.13;;;19.90;89.00;;;;;;5051026;28;20044;-71
2021/07/09 01:17:16;;;;;;;2.08;1.20;;;19.90;89.20;;;;;;5050928;28;20017;-71
2021/07/09 01:19:42;;;;;;;2.35;1.20;;;19.90;89.50;;;;;;5051228;28;20478;-71
2021/07/09 01:22:08;;;;;;;1.48;0.90;;;19.90;89.20;;;;;;5051559;28;20045;-71
2021/07/09 01:24:36;;;;;;;1.10;1.00;;;19.90;89.40;;;;;;5054855;28;20025;-71
2021/07/09 01:27:03;;;;;;;4.32;1.10;;;19.90;89.80;;;;;;5059185;28;20016;-71
2021/07/09 01:29:29;;;;;;;1.73;1.02;;;19.90;89.70;;;;;;5074529;28;20012;-71
2021/07/09 01:31:57;;;;;;;3.70;0.80;;;19.90;89.40;;;;;;5074208;28;20020;-72
2021/07/09 01:34:22;;;;;;;3.50;1.13;;;19.90;89.90;;;;;;5057830;28;20238;-71
2021/07/09 01:36:48;;;;;;;2.22;1.10;;;19.90;90.00;;;;;;5058473;28;20039;-71
2021/07/09 01:39:15;;;;;;;2.13;1.45;;;19.90;90.00;;;;;;5073967;28;20024;-72
2021/07/09 01:41:41;;;;;;;2.95;1.15;;;19.90;89.70;;;;;;5063968;28;20037;-72
2021/07/09 01:44:08;;;;;;;2.97;1.30;;;19.90;89.10;;;;;;5056654;28;20090;-71
2021/07/09 01:46:35;;;;;;;1.42;1.02;;;19.80;88.70;;;;;;5070595;28;20563;-71
2021/07/09 01:49:01;;;;;;;3.85;1.10;;;19.70;88.60;;;;;;5074264;28;20020;-71
2021/07/09 01:51:27;;;;;;;0.82;0.80;;;19.70;88.80;;;;;;5070915;28;20112;-71
2021/07/09 01:53:53;;;;;;;3.63;1.20;;;19.80;89.70;;;;;;5054695;28;20123;-72
2021/07/09 01:56:18;;;;;;;2.38;1.20;;;19.80;90.40;;;;;;5054722;28;20053;-72
2021/07/09 01:58:44;;;;;;;1.88;0.90;;;19.80;90.10;;;;;;5055106;28;20537;-71
2021/07/09 02:01:10;;;;;;;1.17;1.00;;;19.80;90.20;;;;;;5055031;28;20387;-71
2021/07/09 02:03:36;;;;;;;1.58;0.90;;;19.80;90.00;;;;;;5066944;28;20059;-72
2021/07/09 02:06:02;;;;;;;2.97;0.93;;;19.80;90.00;;;;;;5062263;28;20037;-72
2021/07/09 02:08:28;;;;;;;2.10;1.10;;;19.80;89.80;;;;;;5055147;28;20146;-71
2021/07/09 02:10:54;;;;;;;1.02;0.93;;;19.80;89.50;;;;;;5060176;28;20032;-71
2021/07/09 02:13:20;;;;;;;2.22;1.17;;;19.70;89.50;;;;;;5057845;28;20029;-72
2021/07/09 02:15:47;;;;;;;1.83;1.13;;;19.70;89.50;;;;;;5058928;28;20017;-71
2021/07/09 02:18:14;;;;;;;1.27;1.00;;;19.70;89.80;;;;;;5057162;28;20116;-72
2021/07/09 02:20:41;;;;;;;3.30;1.40;;;19.70;89.80;;;;;;5054530;28;20095;-72
2021/07/09 02:23:10;;;;;;;3.85;0.93;;;19.60;89.70;;;;;;5054644;28;20025;-72
2021/07/09 02:25:37;;;;;;;1.40;0.77;;;19.60;90.00;;;;;;5054651;28;20021;-72
2021/07/09 02:28:04;;;;;;;1.58;1.00;;;19.70;90.30;;;;;;5060180;28;20107;-72
2021/07/09 02:30:30;;;;;;;2.50;0.80;;;19.70;90.20;;;;;;5073589;28;20028;-71
2021/07/09 02:32:57;;;;;;;1.75;0.85;;;19.70;90.30;;;;;;5056617;28;20578;-72
2021/07/09 02:35:25;;;;;;;1.42;0.65;;;19.80;90.30;;;;;;5053755;28;20021;-72
2021/07/09 02:37:51;;;;;;;1.98;0.68;;;19.80;90.40;;;;;;5054152;28;20048;-72
2021/07/09 02:40:24;;;;;;;1.40;0.80;;;19.80;90.40;;;;;;5053901;28;20070;-72
2021/07/09 02:42:53;;;;;;;1.10;0.88;;;19.80;90.50;;;;;;5065080;28;20025;-72
2021/07/09 02:45:20;;;;;;;1.17;0.90;;;19.90;90.50;;;;;;5055090;28;20031;-72
2021/07/09 02:47:47;;;;;;;1.58;0.80;;;20.00;90.50;;;;;;5052790;28;20056;-71
2021/07/09 02:50:22;;;;;;;1.65;0.90;;;20.00;90.60;;;;;;5052531;28;20045;-72
2021/07/09 02:52:48;;;;;;;2.28;0.93;;;20.00;90.60;;;;;;5053845;28;20470;-71
2021/07/09 02:55:15;;;;;;;0.80;0.70;;;20.00;90.50;;;;;;5053857;28;20097;-72
2021/07/09 02:57:41;;;;;;;0.98;0.90;;;20.10;90.40;;;;;;5052689;28;20021;-72
2021/07/09 03:00:10;;;;;;;3.92;0.90;;;20.10;90.40;;;;;;5053837;28;20024;-72
2021/07/09 03:02:37;;;;;;;1.63;1.10;;;20.10;90.40;;;;;;5057361;28;20082;-72
2021/07/09 03:05:04;;;;;;;1.23;1.10;;;20.10;90.20;;;;;;5073322;28;20107;-72
2021/07/09 03:07:30;;;;;;;1.25;0.90;;;20.10;90.20;;;;;;5056944;28;20033;-72
2021/07/09 03:09:55;;;;;;;2.97;1.10;;;20.10;90.10;;;;;;5053547;28;20037;-72
2021/07/09 03:12:21;;;;;;;1.45;1.13;;;20.10;90.10;;;;;;5053580;28;20497;-72
2021/07/09 03:14:47;;;;;;;1.85;1.02;;;20.00;90.10;;;;;;5053574;28;20020;-72
2021/07/09 03:17:13;;;;;;;2.47;1.13;;;20.00;90.00;;;;;;5052182;28;20060;-71
2021/07/09 03:19:40;;;;;;;3.05;1.25;;;20.10;90.20;;;;;;5053473;28;20017;-71
2021/07/09 03:22:05;;;;;;;2.22;1.38;;;20.10;90.30;;;;;;5053406;28;20108;-71
2021/07/09 03:24:31;;;;;;;2.10;1.20;;;20.10;90.20;;;;;;5053174;28;20175;-72
2021/07/09 03:26:57;;;;;;;1.48;1.05;;;20.10;90.40;;;;;;5053232;28;20496;-72
2021/07/09 03:29:23;;;;;;;1.98;1.27;;;20.20;90.50;;;;;;5051946;28;20021;-72
2021/07/09 03:31:49;;;;;;;1.23;1.10;;;20.20;90.50;;;;;;5053187;28;20021;-71
2021/07/09 03:34:14;;;;;;;1.60;1.38;;;20.20;90.50;;;;;;5056058;28;20452;-72
2021/07/09 03:36:43;;;;;;;1.33;1.20;;;20.30;90.50;;;;;;5060324;28;20036;-72
2021/07/09 03:39:11;;;;;;;2.08;1.35;;;20.30;90.60;;;;;;5061283;28;20386;-73
2021/07/09 03:41:38;;;;;;;3.40;1.50;;;20.30;90.60;;;;;;5054042;28;20497;-72
2021/07/09 03:44:04;;;;;;;1.85;1.50;;;20.40;90.70;;;;;;5052977;28;20024;-72
2021/07/09 03:46:30;;;;;;;1.85;1.38;;;20.40;90.70;;;;;;5050845;28;20410;-72
2021/07/09 03:48:56;;;;;;;1.30;1.20;;;20.40;90.50;;;;;;5051949;28;20025;-71
2021/07/09 03:51:21;;;;;;;1.70;1.60;;;20.40;90.50;;;;;;5052202;28;20085;-72
2021/07/09 03:53:47;;;;;;;4.35;1.40;;;20.50;90.50;;;;;;5052685;28;20485;-72
2021/07/09 03:56:13;;;;;;;2.63;1.80;;;20.50;90.50;;;;;;5051644;28;20029;-72
2021/07/09 03:58:38;;;;;;;2.67;1.52;;;20.50;90.40;;;;;;5052674;28;20017;-72
2021/07/09 04:01:05;;;;;;;1.67;1.10;;;20.50;90.30;;;;;;5052704;28;20086;-72
2021/07/09 04:03:31;;;;;;;1.73;1.20;;;20.40;90.20;;;;;;5063632;28;20028;-72
2021/07/09 04:05:56;;;;;;;4.50;1.50;;;20.50;90.30;;;;;;5072799;28;20021;-72
2021/07/09 04:08:22;;;;;;;4.45;1.42;;;20.50;90.20;;;;;;5066478;28;20043;-72
2021/07/09 04:10:48;;;;;;;1.95;1.27;;;20.50;90.30;;;;;;5052394;28;20017;-72
2021/07/09 04:13:14;;;;;;;1.50;1.40;;;20.50;90.40;;;;;;5052397;28;20025;-71
2021/07/09 04:15:40;;;;;;;1.67;1.35;;;20.50;90.50;;;;;;5052629;28;20028;-72
2021/07/09 04:18:06;;;;;;;2.25;1.67;;;20.60;90.60;;;;;;5052250;28;20033;-71
2021/07/09 04:20:31;;;;;;;3.20;1.35;;;20.60;90.50;;;;;;5051259;28;20051;-71
2021/07/09 04:22:57;;;;;;;1.77;1.60;;;20.60;90.50;;;;;;5052380;28;20025;-71
2021/07/09 04:25:23;;;;;;;2.03;1.70;;;20.60;90.30;;;;;;5052500;28;20025;-72
2021/07/09 04:27:49;;;;;;;2.17;1.40;;;20.60;90.30;;;;;;5052318;28;20414;-72
2021/07/09 04:30:16;;;;;;;1.60;1.40;;;20.60;90.20;;;;;;5052184;28;20072;-71
2021/07/09 04:32:41;;;;;;;2.20;1.80;;;20.50;90.10;;;;;;5051123;28;20029;-72
2021/07/09 04:35:08;;;;;;;1.92;1.30;;;20.50;90.20;;;;;;5052267;28;20078;-72
2021/07/09 04:37:35;;;;;;;2.22;1.52;;;20.50;90.20;;;;;;5061029;28;20032;-72
2021/07/09 04:40:02;;;;;;;1.60;1.23;;;20.50;90.30;;;;;;5070312;28;20023;-72
2021/07/09 04:42:28;;;;;;;2.15;1.23;;;20.40;90.30;;;;;;5054285;28;20025;-72
2021/07/09 04:44:54;;;;;;;2.00;1.38;;;20.50;90.40;;;;;;5052257;28;20021;-71
2021/07/09 04:47:20;;;;;;;1.55;1.45;;;20.40;90.40;;;;;;5052310;28;20029;-71
2021/07/09 04:49:46;;;;;;;4.80;1.67;;;20.50;90.40;;;;;;5053553;28;20045;-72
2021/07/09 04:52:12;;;;;;;5.20;1.70;;;20.50;90.50;;;;;;5052148;28;20040;-72
2021/07/09 04:54:37;;;;;;;4.75;1.50;;;20.40;90.50;;;;;;5049755;28;20454;-72
2021/07/09 04:57:03;;;;;;;2.95;1.42;;;20.40;90.30;;;;;;5050562;28;20017;-72
2021/07/09 04:59:29;;;;;;;1.67;1.55;;;20.50;90.50;;;;;;5055831;28;20390;-71
2021/07/09 05:01:55;;;;;;;2.35;1.95;;;20.50;90.70;;;;;;5054645;28;20029;-72
2021/07/09 05:04:21;;;;;;;2.95;1.67;;;20.50;90.50;;;;;;5071108;28;20035;-72
2021/07/09 05:06:46;;;;;;;1.65;1.55;;;20.60;90.80;;;;;;5054525;28;20166;-73
2021/07/09 05:09:12;;;;;;;2.10;1.90;;;20.70;91.10;;;;;;5054633;28;20123;-73
2021/07/09 05:11:38;;;;;;;1.98;1.60;;;20.80;91.20;;;;;;5058256;28;20109;-73
2021/07/09 05:14:05;;;;;;;1.88;1.67;;;20.90;91.30;;;;;;5061721;28;20363;-73
2021/07/09 05:16:31;;;;;;;2.30;1.52;;;21.00;91.30;;;;;;5062788;28;20013;-72
2021/07/09 05:18:57;;;;;;;2.13;1.73;;;21.10;91.20;;;;;;5073941;28;20026;-72
2021/07/09 05:21:25;;;;;;;2.72;1.65;;;21.20;91.20;;;;;;5064925;28;20062;-72
2021/07/09 05:23:51;;;;;;;3.65;1.98;;;21.20;91.20;;;;;;5076129;28;20026;-72
2021/07/09 05:26:17;;;;;;;1.60;1.50;;;21.40;91.30;;;;;;5075436;28;20355;-72
2021/07/09 05:28:43;;;;;;;2.80;2.08;;;21.40;91.40;;;;;;5055446;28;20382;-72
2021/07/09 05:31:09;;;;;;;2.65;1.45;;;21.60;91.40;;;;;;5065572;28;20098;-72
2021/07/09 05:33:34;;;;;;;3.28;1.80;;;21.60;91.30;;;;;;5069299;28;20381;-72
2021/07/09 05:36:00;;;;;;;3.13;1.90;;;21.70;91.20;;;;;;5077980;28;20111;-72
2021/07/09 05:38:26;;;;;;;2.20;1.70;;;21.80;91.10;;;;;;5071020;28;20018;-72
2021/07/09 05:40:52;;;;;;;2.05;1.58;;;21.80;90.80;;;;;;5070548;28;20571;-72
2021/07/09 05:43:19;;;;;;;2.42;1.63;;;21.80;90.80;;;;;;5064624;28;20408;-72
2021/07/09 05:45:45;;;;;;;2.92;1.70;;;21.80;90.60;;;;;;5066012;28;20025;-73
2021/07/09 05:48:10;;;;;;;2.00;1.60;;;21.90;90.80;;;;;;5055120;28;20482;-72
2021/07/09 05:50:36;;;;;;;3.55;1.90;;;22.00;90.90;;;;;;5065550;28;20555;-72
2021/07/09 05:53:02;;;;;;;2.97;2.10;;;22.10;91.10;;;;;;5072981;28;20366;-72
2021/07/09 05:55:28;;;;;;;6.57;1.75;;;22.10;90.90;;;;;;5066814;28;20112;-72
2021/07/09 05:57:53;;;;;;;2.70;1.38;;;22.10;90.90;;;;;;5060440;28;20028;-72
2021/07/09 06:00:19;;;;;;;3.20;1.67;;;22.20;90.70;;;;;;5055328;28;20111;-72
2021/07/09 06:02:45;;;;;;;2.80;1.80;;;22.20;90.80;;;;;;5060025;28;20031;-72
2021/07/09 06:05:11;;;;;;;2.13;1.50;;;22.30;90.70;;;;;;5066141;28;20040;-74
2021/07/09 06:07:37;;;;;;;1.50;1.38;;;22.30;90.70;;;;;;5060650;28;20418;-72
2021/07/09 06:10:05;;;;;;;2.55;1.80;;;22.40;90.90;;;;;;5067415;28;20031;-72
2021/07/09 06:12:31;;;;;;;2.33;1.55;;;22.40;90.60;;;;;;5062898;28;20025;-73
2021/07/09 06:14:57;;;;;;;7.65;1.75;;;22.50;90.50;;;;;;5064722;28;20563;-72
2021/07/09 06:17:22;;;;;;;1.83;1.50;;;22.50;90.50;;;;;;5057033;28;20368;-72
2021/07/09 06:19:48;;;;;;;2.25;1.50;;;22.60;90.50;;;;;;5061770;28;20021;-72
2021/07/09 06:22:14;;;;;;;1.50;1.40;;;22.60;90.60;;;;;;5062613;28;20369;-73
2021/07/09 06:24:40;;;;;;;5.80;1.80;;;22.60;90.50;;;;;;5072722;28;20386;-72
2021/07/09 06:27:07;;;;;;;2.25;1.38;;;22.70;90.20;;;;;;5069188;28;20009;-73
2021/07/09 06:29:33;;;;;;;1.55;1.17;;;22.70;89.90;;;;;;5076229;28;20048;-73
2021/07/09 06:31:59;;;;;;;4.25;1.20;;;22.70;90.40;;;;;;5057674;28;20027;-73
2021/07/09 06:34:25;;;;;;;1.30;1.20;;;22.80;90.40;;;;;;5074055;28;20028;-72
2021/07/09 06:36:51;;;;;;;1.55;1.02;;;22.80;90.10;;;;;;5069444;28;20021;-72
2021/07/09 06:39:17;;;;;;;1.67;1.20;;;22.80;89.50;;;;;;5054435;28;20033;-72
2021/07/09 06:41:42;;;;;;;2.80;1.50;;;22.70;88.60;;;;;;5056000;28;20021;-73
2021/07/09 06:44:08;;;;;;;2.97;1.13;;;22.60;86.60;;;;;;5053282;28;20040;-72
2021/07/09 06:46:34;;;;;;;3.10;1.08;;;22.50;87.70;;;;;;5054339;28;20025;-72
2021/07/09 06:49:00;;;;;;;2.28;0.90;;;22.50;88.40;;;;;;5054355;28;20021;-72
2021/07/09 06:51:26;;;;;;;1.88;1.17;;;22.40;87.60;;;;;;5064105;28;20119;-73
2021/07/09 06:53:51;;;;;;;3.97;1.40;;;22.40;89.30;;;;;;5074263;28;20381;-72
2021/07/09 06:56:17;;;;;;;2.85;1.23;;;22.50;90.10;;;;;;5073898;28;20447;-72
2021/07/09 06:58:43;;;;;;;2.03;1.20;;;22.60;90.00;;;;;;5074134;28;20020;-72
2021/07/09 07:01:09;;;;;;;2.88;1.45;;;22.60;90.20;;;;;;5074137;28;20092;-73
2021/07/09 07:03:35;;;;;;;10.80;1.70;;;22.70;90.30;;;;;;5054944;28;20381;-73
2021/07/09 07:06:01;;;;;;;8.82;1.20;;;22.70;90.10;;;;;;5056173;28;20433;-73
2021/07/09 07:08:27;;;;;;;2.92;0.80;;;22.70;89.70;;;;;;5062547;28;20371;-72
2021/07/09 07:10:55;;;;;;;3.10;1.30;;;22.70;89.50;;;;;;5073860;28;20535;-72
2021/07/09 07:13:23;;;;;;;2.40;1.10;;;22.70;89.30;;;;;;5055446;28;20048;-72
2021/07/09 07:15:49;;;;;;;1.85;0.90;;;22.70;88.90;;;;;;5053744;28;20037;-72
2021/07/09 07:18:16;;;;;;;2.22;1.02;;;22.60;88.70;;;;;;5053800;28;20067;-73
2021/07/09 07:20:44;;;;;;;5.00;1.63;;;22.50;88.60;;;;;;5052029;28;20021;-73
2021/07/09 07:23:12;;;;;;;0.80;0.63;;;22.50;88.30;;;;;;5053755;28;20025;-73
2021/07/09 07:25:39;;;;;;;2.25;0.60;;;22.50;89.30;;;;;;5053647;28;20024;-73
2021/07/09 07:28:06;;;;;;;3.47;0.63;;;22.50;89.30;;;;;;5052075;28;20044;-73
2021/07/09 07:30:33;;;;;;;1.88;0.70;;;22.50;88.90;;;;;;5053546;28;20048;-73
2021/07/09 07:32:59;;;;;;;1.65;0.70;;;22.40;87.90;;;;;;5053270;28;20025;-73
2021/07/09 07:35:25;;;;;;;3.03;0.75;;;22.30;87.60;;;;;;5052071;28;20017;-73
2021/07/09 07:37:53;;;;;;;2.55;0.45;;;22.20;87.30;;;;;;5052364;28;20074;-73
2021/07/09 07:40:19;;;;;;;1.45;0.50;;;22.30;88.50;;;;;;5064561;28;20013;-72
2021/07/09 07:42:45;;;;;;;2.25;0.50;;;22.30;88.80;;;;;;5059872;28;20136;-73
2021/07/09 07:45:12;;;;;;;0.70;0.55;;;22.20;87.10;;;;;;5071154;28;20032;-73
2021/07/09 07:47:38;;;;;;;1.02;0.50;;;22.20;86.70;;;;;;5072156;28;20035;-72
2021/07/09 07:50:06;;;;;;;1.30;0.47;;;22.20;86.80;;;;;;5068198;28;20053;-73
2021/07/09 07:52:31;;;;;;;3.63;0.60;;;22.20;87.80;;;;;;5069802;28;20067;-73
2021/07/09 07:54:57;;;;;;;0.73;0.57;;;22.10;87.20;;;;;;5072924;28;20439;-73
2021/07/09 07:57:23;;;;;;;1.73;1.20;;;22.10;85.80;;;;;;5073039;28;20032;-72
2021/07/09 07:59:49;;;;;;;0.55;0.40;;;22.10;86.10;;;;;;5072942;28;20024;-72
2021/07/09 08:02:15;;;;;;;0.73;0.50;;;22.20;87.80;;;;;;5071794;28;20392;-73
2021/07/09 08:04:41;;;;;;;1.58;0.80;;;22.30;88.90;;;;;;5066756;28;20514;-73
2021/07/09 08:07:06;;;;;;;1.70;0.70;;;22.50;88.50;;;;;;5052917;28;20025;-73
2021/07/09 08:09:33;;;;;;;0.50;0.50;;;22.60;88.00;;;;;;5070511;28;20048;-72
2021/07/09 08:12:00;;;;;;;2.67;0.57;;;22.70;86.30;;;;;;5063769;28;20028;-73
2021/07/09 08:14:26;;;;;;;1.20;0.90;;;22.70;85.10;;;;;;5053896;28;20017;-73
2021/07/09 08:16:52;;;;;;;2.47;0.50;;;22.70;83.10;;;;;;5071431;28;20024;-72
2021/07/09 08:19:19;;;;;;;0.50;0.50;;;22.70;82.10;;;;;;5072706;28;20024;-73
2021/07/09 08:21:46;;;;;;;0.65;0.40;;;22.80;84.60;;;;;;5070760;28;20025;-74
2021/07/09 08:24:16;;;;;;;2.13;0.70;;;22.80;83.20;;;;;;5056362;28;20036;-73
2021/07/09 08:26:42;;;;;;;0.30;0.30;;;22.90;85.30;;;;;;5070935;28;20500;-73
2021/07/09 08:29:08;;;;;;;0.30;0.30;;;23.00;82.30;;;;;;5072518;28;20034;-73
2021/07/09 08:31:33;;;;;;;1.75;0.50;;;23.30;85.70;;;;;;5072843;28;20029;-73
2021/07/09 08:33:59;;;;;;;0.55;0.40;;;23.30;80.90;;;;;;5076433;28;20032;-73
2021/07/09 08:36:25;;;;;;;4.03;0.35;;;23.40;79.10;;;;;;5061586;28;20021;-73
2021/07/09 08:38:52;;;;;;;0.80;0.50;;;23.60;82.90;;;;;;5055414;28;20049;-73
2021/07/09 08:41:18;;;;;;;0.55;0.40;;;23.80;82.00;;;;;;5056702;28;20529;-73
2021/07/09 08:43:44;;;;;;;8.25;0.50;;;24.00;80.50;;;;;;5056599;28;20079;-73
2021/07/09 08:46:10;;;;;;;0.30;0.20;;;24.00;75.40;;;;;;5067301;28;20021;-74
2021/07/09 08:48:37;;;;;;;0.25;0.20;;;24.10;75.80;;;;;;5055352;28;20029;-73
2021/07/09 08:51:04;;;;;;;0.17;0.17;;;24.10;74.80;;;;;;5055119;28;20097;-73
2021/07/09 08:53:30;;;;;;;0.22;0.22;;;24.20;76.80;;;;;;5056436;28;20033;-72
2021/07/09 08:55:58;;;;;;;0.77;0.40;;;24.20;75.40;;;;;;5057807;28;20029;-73
2021/07/09 08:58:23;;;;;;;0.70;0.30;;;24.30;75.70;;;;;;5057114;28;20029;-73
2021/07/09 09:00:50;;;;;;;1.55;0.30;;;24.40;77.40;;;;;;5063639;28;20023;-72
2021/07/09 09:03:26;;;;;;;1.20;0.50;;;24.50;76.00;;;;;;5082057;28;20389;-72
2021/07/09 09:05:59;;;;;;;1.42;0.47;;;24.50;74.80;;;;;;5067982;28;20039;-72
2021/07/09 09:08:27;;;;;;;0.93;0.30;;;24.60;72.00;;;;;;5074526;28;20112;-72
2021/07/09 09:10:55;;;;;;;3.08;0.40;;;24.70;68.60;;;;;;5076099;28;20030;-72
2021/07/09 09:13:28;;;;;;;1.85;0.38;;;24.70;73.50;;;;;;5061126;28;20037;-72
2021/07/09 09:15:57;;;;;;;0.50;0.40;;;24.70;71.60;;;;;;5056124;28;20017;-72
2021/07/09 09:18:32;;;;;;;0.45;0.40;;;24.70;73.30;;;;;;5056144;28;20070;-73
2021/07/09 09:21:09;;;;;;;1.75;0.70;;;24.70;72.60;;;;;;5061958;28;20021;-73
2021/07/09 09:23:52;;;;;;;0.38;0.38;;;24.80;72.70;;;;;;5058790;28;20036;-72
2021/07/09 09:26:47;;;;;;;0.90;0.73;;;24.90;71.90;;;;;;5067093;28;20024;-72
2021/07/09 09:29:15;;;;;;;2.78;1.50;;;25.10;71.80;;;;;;5075956;28;20024;-73
2021/07/09 09:31:41;;;;;;;0.90;0.63;;;25.20;72.80;;;;;;5075722;28;20020;-72
2021/07/09 09:34:08;;;;;;;1.48;0.80;;;25.30;67.40;;;;;;5066436;28;20099;-73
2021/07/09 09:36:34;;;;;;;0.38;0.30;;;25.50;70.90;;;;;;5055701;28;20475;-73
2021/07/09 09:39:04;;;;;;;4.45;0.43;;;25.60;68.50;;;;;;5055541;28;20032;-73
2021/07/09 09:41:30;;;;;;;0.30;0.30;;;25.80;68.50;;;;;;5055481;28;20017;-73
2021/07/09 09:44:13;;;;;;;1.08;0.30;;;26.00;71.10;;;;;;5055377;28;20029;-73
2021/07/09 09:46:39;;;;;;;1.35;0.65;;;26.20;67.80;;;;;;5055572;28;20096;-72
2021/07/09 09:49:05;;;;;;;0.60;0.50;;;26.30;65.20;;;;;;5054173;28;20119;-73
2021/07/09 09:51:38;;;;;;;1.35;0.50;;;26.30;65.10;;;;;;5055194;28;20052;-73
2021/07/09 09:54:09;;;;;;;0.35;0.35;;;26.30;61.90;;;;;;5054991;28;20055;-73
2021/07/09 09:56:44;;;;;;;0.10;0.10;;;26.30;58.70;;;;;;5055079;28;20017;-73
2021/07/09 09:59:18;;;;;;;0.63;0.40;;;26.20;58.00;;;;;;5055131;28;20021;-73
2021/07/09 10:01:52;;;;;;;0.93;0.50;;;26.10;59.10;;;;;;5055095;28;20025;-73
2021/07/09 10:04:18;;;;;;;1.40;0.25;;;26.00;58.50;;;;;;5055149;28;20017;-73
2021/07/09 10:06:45;;;;;;;0.52;0.28;;;25.80;57.80;;;;;;5054903;28;20028;-73
2021/07/09 10:09:15;;;;;;;0.30;0.30;;;25.80;59.50;;;;;;5054783;28;20184;-73
2021/07/09 10:11:42;;;;;;;4.90;0.73;;;25.80;60.10;;;;;;5054681;28;20052;-73
2021/07/09 10:14:13;;;;;;;0.50;0.40;;;25.80;57.50;;;;;;5054611;28;20483;-74
2021/07/09 10:16:46;;;;;;;0.65;0.30;;;25.80;58.30;;;;;;5054811;28;20103;-73
2021/07/09 10:19:39;;;;;;;0.47;0.40;;;25.80;58.80;;;;;;5053184;28;20031;-73
2021/07/09 10:22:07;;;;;;;0.43;0.23;;;25.80;59.70;;;;;;5053111;28;20037;-73
2021/07/09 10:24:34;;;;;;;0.32;0.30;;;25.80;60.50;;;;;;5054568;28;20032;-73
2021/07/09 10:27:02;;;;;;;5.03;2.38;;;25.90;58.60;;;;;;5054147;28;20039;-73
2021/07/09 10:29:35;;;;;;;1.67;0.30;;;25.90;55.80;;;;;;5069894;28;20037;-73
2021/07/09 10:32:04;;;;;;;0.30;0.30;;;26.00;58.30;;;;;;5068258;28;20067;-72
2021/07/09 10:35:01;;;;;;;3.47;0.50;;;26.00;56.70;;;;;;5052624;28;20049;-73
2021/07/09 10:37:30;;;;;;;3.28;0.50;;;26.00;56.80;;;;;;5052931;28;20102;-73
2021/07/09 10:40:07;;;;;;;0.57;0.38;;;26.00;56.20;;;;;;5053167;28;20029;-73
2021/07/09 10:42:39;;;;;;;0.60;0.40;;;26.00;54.90;;;;;;5059704;28;20045;-73
2021/07/09 10:45:23;;;;;;;2.90;0.60;;;26.00;55.10;;;;;;5067753;28;20028;-73
2021/07/09 10:48:08;;;;;;;0.77;0.40;;;25.90;55.40;;;;;;5073092;28;20363;-73
2021/07/09 10:50:36;;;;;;;1.92;0.68;;;25.80;52.80;;;;;;5074104;28;20059;-74
2021/07/09 10:53:23;;;;;;;0.90;0.40;;;25.60;56.10;;;;;;5073960;28;20466;-73
2021/07/09 10:56:08;;;;;;;1.42;0.63;;;25.50;53.40;;;;;;5072369;28;20025;-74
2021/07/09 10:58:47;;;;;;;1.25;0.70;;;25.30;54.60;;;;;;5072760;28;20063;-73
2021/07/09 11:01:24;;;;;;;1.05;0.50;;;25.30;56.50;;;;;;5074188;28;20028;-73
2021/07/09 11:03:57;;;;;;;1.20;0.60;;;25.20;56.30;;;;;;5073850;28;20079;-73
2021/07/09 11:06:42;;;;;;;2.53;1.23;;;25.20;55.90;;;;;;5073738;28;20396;-73
2021/07/09 11:09:12;;;;;;;2.42;1.00;;;25.30;57.80;;;;;;5072499;28;20028;-74
2021/07/09 11:11:49;;;;;;;3.80;0.60;;;25.50;58.10;;;;;;5069772;28;20036;-73
2021/07/09 11:14:20;;;;;;;2.05;0.38;;;25.60;58.00;;;;;;5053801;28;20483;-74
2021/07/09 11:16:48;;;;;;;1.42;0.50;;;25.70;55.40;;;;;;5053721;28;20017;-73
2021/07/09 11:19:16;;;;;;;0.52;0.28;;;25.70;55.10;;;;;;5053497;28;20052;-74
2021/07/09 11:21:41;;;;;;;0.20;0.20;;;25.60;52.30;;;;;;5052342;28;20086;-74
2021/07/09 11:24:08;;;;;;;1.75;0.43;;;25.60;55.90;;;;;;5053398;28;20483;-74
2021/07/09 11:26:55;;;;;;;0.80;0.30;;;25.50;54.40;;;;;;5053465;28;20029;-73
2021/07/09 11:29:30;;;;;;;0.73;0.40;;;25.50;55.00;;;;;;5053634;28;20025;-73
2021/07/09 11:31:57;;;;;;;1.45;0.30;;;25.40;54.30;;;;;;5053250;28;20478;-73
2021/07/09 11:34:24;;;;;;;0.47;0.20;;;25.30;56.40;;;;;;5052060;28;20025;-74
2021/07/09 11:36:51;;;;;;;0.30;0.30;;;25.30;55.10;;;;;;5053403;28;20025;-74
2021/07/09 11:39:23;;;;;;;1.45;0.38;;;25.50;56.10;;;;;;5053215;28;20035;-74
2021/07/09 11:41:56;;;;;;;0.80;0.30;;;25.60;57.30;;;;;;5053248;28;20017;-73
2021/07/09 11:44:25;;;;;;;6.80;0.40;;;25.90;57.80;;;;;;5053128;28;20060;-73
2021/07/09 11:46:57;;;;;;;1.48;0.47;;;26.00;54.80;;;;;;5051828;28;20029;-73
2021/07/09 11:49:29;;;;;;;0.38;0.30;;;26.20;53.80;;;;;;5052994;28;20025;-74
2021/07/09 11:52:03;;;;;;;0.20;0.20;;;26.20;55.40;;;;;;5051806;28;20057;-73
2021/07/09 11:54:38;;;;;;;1.25;0.20;;;26.30;55.50;;;;;;5052941;28;20082;-74
2021/07/09 11:57:10;;;;;;;0.57;0.32;;;26.30;53.00;;;;;;5053076;28;20104;-74
2021/07/09 11:59:38;;;;;;;0.22;0.22;;;26.40;52.60;;;;;;5053077;28;20025;-73
2021/07/09 12:02:13;;;;;;;0.30;0.30;;;26.50;52.10;;;;;;5053000;28;20051;-74
2021/07/09 12:04:58;;;;;;;0.90;0.40;;;26.50;54.80;;;;;;5052936;28;20020;-74
2021/07/09 12:07:38;;;;;;;0.25;0.20;;;26.60;53.50;;;;;;5052193;28;20100;-74
2021/07/09 12:10:15;;;;;;;0.22;0.10;;;26.70;53.20;;;;;;5052914;28;20028;-74
2021/07/09 12:12:47;;;;;;;0.63;0.32;;;26.80;51.10;;;;;;5052721;28;20490;-74
2021/07/09 12:15:18;;;;;;;0.73;0.40;;;26.90;51.20;;;;;;5052966;28;20029;-74
2021/07/09 12:17:47;;;;;;;1.30;0.35;;;26.80;51.90;;;;;;5052929;28;20021;-74
2021/07/09 12:20:16;;;;;;;0.52;0.40;;;26.80;53.70;;;;;;5052811;28;20510;-75
2021/07/09 12:22:48;;;;;;;1.27;0.30;;;26.80;52.00;;;;;;5051527;28;20032;-74
2021/07/09 12:25:23;;;;;;;1.95;0.40;;;26.80;53.50;;;;;;5052910;28;20025;-74
2021/07/09 12:27:50;;;;;;;1.10;0.40;;;26.90;54.00;;;;;;5051429;28;20111;-74
2021/07/09 12:30:19;;;;;;;0.60;0.50;;;26.90;53.10;;;;;;5052647;28;20056;-74
2021/07/09 12:32:53;;;;;;;1.10;0.50;;;27.00;53.50;;;;;;5052733;28;20074;-74
2021/07/09 12:35:20;;;;;;;2.83;0.50;;;27.20;54.40;;;;;;5051131;28;20045;-75
2021/07/09 12:37:58;;;;;;;0.47;0.43;;;27.30;51.80;;;;;;5052631;28;20029;-75
2021/07/09 12:40:29;;;;;;;0.95;0.40;;;27.30;50.90;;;;;;5052578;28;20469;-75
2021/07/09 12:43:11;;;;;;;0.82;0.30;;;27.50;55.60;;;;;;5052399;28;20041;-75
2021/07/09 12:45:38;;;;;;;0.52;0.40;;;27.70;53.60;;;;;;5052537;28;20025;-75
2021/07/09 12:48:04;;;;;;;0.82;0.30;;;27.80;50.40;;;;;;5052516;28;20104;-75
2021/07/09 12:50:33;;;;;;;0.43;0.40;;;27.90;49.80;;;;;;5052299;28;20051;-75
2021/07/09 12:53:16;;;;;;;0.20;0.10;;;27.90;50.60;;;;;;5052553;28;20036;-75